sensor_id;sensor_type;location;lat;lon;timestamp;P1;durP1;ratioP1;P2;durP2;ratioP2
23470;SDS011;11908;50.806;4.424;2022-08-03T00:01:36;2.05;;;1.45;;
23470;SDS011;11908;50.806;4.424;2022-08-03T00:04:03;3.80;;;1.60;;
23470;SDS011;11908;50.806;4.424;2022-08-03T00:06:29;3.78;;;1.60;;
23470;SDS011;11908;50.806;4.424;2022-08-03T00:08:55;3.03;;;1.50;;
23470;SDS011;11908;50.806;4.424;2022-08-03T00:11:24;2.90;;;1.50;;
23470;SDS011;11908;50.806;4.424;2022-08-03T00:13:52;5.13;;;1.60;;
23470;SDS011;11908;50.806;4.424;2022-08-03T00:16:17;5.82;;;1.92;;
23470;SDS011;11908;50.806;4.424;2022-08-03T00:18:43;3.65;;;1.80;;
23470;SDS011;11908;50.806;4.424;2022-08-03T00:21:09;5.80;;;1.70;;
23470;SDS011;11908;50.806;4.424;2022-08-03T00:23:35;3.45;;;1.40;;
23470;SDS011;11908;50.806;4.424;2022-08-03T00:26:01;3.67;;;1.60;;
23470;SDS011;11908;50.806;4.424;2022-08-03T00:28:27;4.68;;;1.42;;
23470;SDS011;11908;50.806;4.424;2022-08-03T00:30:53;2.17;;;1.30;;
23470;SDS011;11908;50.806;4.424;2022-08-03T00:33:20;9.10;;;1.50;;
23470;SDS011;11908;50.806;4.424;2022-08-03T00:35:45;4.15;;;1.50;;
23470;SDS011;11908;50.806;4.424;2022-08-03T00:38:11;4.90;;;1.17;;
23470;SDS011;11908;50.806;4.424;2022-08-03T00:40:37;3.50;;;1.40;;
23470;SDS011;11908;50.806;4.424;2022-08-03T00:43:03;2.85;;;1.73;;
23470;SDS011;11908;50.806;4.424;2022-08-03T00:45:35;6.05;;;1.67;;
23470;SDS011;11908;50.806;4.424;2022-08-03T00:48:03;4.20;;;1.40;;
23470;SDS011;11908;50.806;4.424;2022-08-03T00:50:32;6.38;;;1.55;;
23470;SDS011;11908;50.806;4.424;2022-08-03T00:53:00;1.70;;;1.13;;
23470;SDS011;11908;50.806;4.424;2022-08-03T00:55:27;2.80;;;1.40;;
23470;SDS011;11908;50.806;4.424;2022-08-03T00:57:52;4.80;;;1.83;;
23470;SDS011;11908;50.806;4.424;2022-08-03T01:00:20;4.47;;;1.63;;
23470;SDS011;11908;50.806;4.424;2022-08-03T01:02:49;6.13;;;1.88;;
23470;SDS011;11908;50.806;4.424;2022-08-03T01:05:15;7.53;;;1.98;;
23470;SDS011;11908;50.806;4.424;2022-08-03T01:10:15;5.78;;;1.67;;
23470;SDS011;11908;50.806;4.424;2022-08-03T01:13:14;4.80;;;1.63;;
23470;SDS011;11908;50.806;4.424;2022-08-03T01:15:49;3.50;;;1.70;;
23470;SDS011;11908;50.806;4.424;2022-08-03T01:18:48;6.10;;;1.55;;
23470;SDS011;11908;50.806;4.424;2022-08-03T01:30:20;3.65;;;1.55;;
23470;SDS011;11908;50.806;4.424;2022-08-03T01:32:54;5.68;;;1.73;;
23470;SDS011;11908;50.806;4.424;2022-08-03T01:35:33;5.43;;;1.60;;
23470;SDS011;11908;50.806;4.424;2022-08-03T01:38:09;3.35;;;1.70;;
23470;SDS011;11908;50.806;4.424;2022-08-03T01:40:38;4.40;;;1.73;;
23470;SDS011;11908;50.806;4.424;2022-08-03T01:43:05;2.92;;;1.70;;
23470;SDS011;11908;50.806;4.424;2022-08-03T01:45:33;3.78;;;1.70;;
23470;SDS011;11908;50.806;4.424;2022-08-03T01:48:00;4.95;;;1.50;;
23470;SDS011;11908;50.806;4.424;2022-08-03T01:50:28;3.75;;;1.40;;
23470;SDS011;11908;50.806;4.424;2022-08-03T01:52:56;6.68;;;1.27;;
23470;SDS011;11908;50.806;4.424;2022-08-03T01:55:22;7.18;;;1.58;;
23470;SDS011;11908;50.806;4.424;2022-08-03T01:57:52;4.20;;;1.40;;
23470;SDS011;11908;50.806;4.424;2022-08-03T02:00:19;4.03;;;1.40;;
23470;SDS011;11908;50.806;4.424;2022-08-03T02:02:47;9.02;;;1.85;;
23470;SDS011;11908;50.806;4.424;2022-08-03T02:05:14;3.80;;;1.70;;
23470;SDS011;11908;50.806;4.424;2022-08-03T02:07:42;4.72;;;1.63;;
23470;SDS011;11908;50.806;4.424;2022-08-03T02:10:11;4.22;;;1.40;;
23470;SDS011;11908;50.806;4.424;2022-08-03T02:12:40;6.13;;;1.75;;
23470;SDS011;11908;50.806;4.424;2022-08-03T02:15:08;6.38;;;1.50;;
23470;SDS011;11908;50.806;4.424;2022-08-03T02:17:36;4.63;;;1.42;;
23470;SDS011;11908;50.806;4.424;2022-08-03T02:20:03;5.65;;;1.80;;
23470;SDS011;11908;50.806;4.424;2022-08-03T02:22:30;4.57;;;1.40;;
23470;SDS011;11908;50.806;4.424;2022-08-03T02:24:57;2.53;;;1.55;;
23470;SDS011;11908;50.806;4.424;2022-08-03T02:27:23;3.88;;;1.50;;
23470;SDS011;11908;50.806;4.424;2022-08-03T02:29:55;4.40;;;1.63;;
23470;SDS011;11908;50.806;4.424;2022-08-03T02:32:36;2.55;;;1.30;;
23470;SDS011;11908;50.806;4.424;2022-08-03T02:35:14;3.20;;;2.17;;
23470;SDS011;11908;50.806;4.424;2022-08-03T02:37:43;5.15;;;1.75;;
23470;SDS011;11908;50.806;4.424;2022-08-03T02:40:14;8.13;;;1.92;;
23470;SDS011;11908;50.806;4.424;2022-08-03T02:42:43;5.97;;;1.40;;
23470;SDS011;11908;50.806;4.424;2022-08-03T02:45:10;3.80;;;1.60;;
23470;SDS011;11908;50.806;4.424;2022-08-03T02:47:38;5.28;;;1.63;;
23470;SDS011;11908;50.806;4.424;2022-08-03T02:50:05;4.07;;;1.50;;
23470;SDS011;11908;50.806;4.424;2022-08-03T02:52:36;5.80;;;1.77;;
23470;SDS011;11908;50.806;4.424;2022-08-03T02:55:04;5.32;;;1.58;;
23470;SDS011;11908;50.806;4.424;2022-08-03T02:57:32;1.98;;;1.48;;
23470;SDS011;11908;50.806;4.424;2022-08-03T02:59:59;4.78;;;1.73;;
23470;SDS011;11908;50.806;4.424;2022-08-03T03:02:26;7.03;;;1.70;;
23470;SDS011;11908;50.806;4.424;2022-08-03T03:04:52;5.00;;;1.60;;
23470;SDS011;11908;50.806;4.424;2022-08-03T03:07:20;3.88;;;1.45;;
23470;SDS011;11908;50.806;4.424;2022-08-03T03:09:46;3.08;;;1.73;;
23470;SDS011;11908;50.806;4.424;2022-08-03T03:12:12;2.75;;;1.60;;
23470;SDS011;11908;50.806;4.424;2022-08-03T03:14:39;3.30;;;1.90;;
23470;SDS011;11908;50.806;4.424;2022-08-03T03:17:05;5.00;;;1.48;;
23470;SDS011;11908;50.806;4.424;2022-08-03T03:19:33;3.53;;;1.52;;
23470;SDS011;11908;50.806;4.424;2022-08-03T03:22:00;4.88;;;1.70;;
23470;SDS011;11908;50.806;4.424;2022-08-03T03:24:28;3.33;;;1.58;;
23470;SDS011;11908;50.806;4.424;2022-08-03T03:26:54;4.13;;;1.27;;
23470;SDS011;11908;50.806;4.424;2022-08-03T03:29:21;3.55;;;1.70;;
23470;SDS011;11908;50.806;4.424;2022-08-03T03:31:47;4.35;;;1.60;;
23470;SDS011;11908;50.806;4.424;2022-08-03T03:34:13;2.35;;;1.70;;
23470;SDS011;11908;50.806;4.424;2022-08-03T03:36:39;2.92;;;1.80;;
23470;SDS011;11908;50.806;4.424;2022-08-03T03:39:05;3.50;;;1.67;;
23470;SDS011;11908;50.806;4.424;2022-08-03T03:41:31;2.33;;;1.50;;
23470;SDS011;11908;50.806;4.424;2022-08-03T03:43:57;4.47;;;1.80;;
23470;SDS011;11908;50.806;4.424;2022-08-03T03:46:23;7.05;;;1.83;;
23470;SDS011;11908;50.806;4.424;2022-08-03T03:48:49;4.43;;;1.70;;
23470;SDS011;11908;50.806;4.424;2022-08-03T03:51:15;7.97;;;1.80;;
23470;SDS011;11908;50.806;4.424;2022-08-03T03:53:57;3.10;;;1.30;;
23470;SDS011;11908;50.806;4.424;2022-08-03T03:56:23;4.18;;;1.75;;
23470;SDS011;11908;50.806;4.424;2022-08-03T03:58:49;2.65;;;1.40;;
23470;SDS011;11908;50.806;4.424;2022-08-03T04:01:15;4.40;;;1.73;;
23470;SDS011;11908;50.806;4.424;2022-08-03T04:03:42;4.72;;;1.80;;
23470;SDS011;11908;50.806;4.424;2022-08-03T04:06:07;3.50;;;1.77;;
23470;SDS011;11908;50.806;4.424;2022-08-03T04:08:52;2.60;;;1.25;;
23470;SDS011;11908;50.806;4.424;2022-08-03T04:11:40;6.57;;;1.70;;
23470;SDS011;11908;50.806;4.424;2022-08-03T04:16:42;6.15;;;1.70;;
23470;SDS011;11908;50.806;4.424;2022-08-03T04:19:14;4.82;;;1.95;;
23470;SDS011;11908;50.806;4.424;2022-08-03T04:21:43;8.02;;;2.03;;
23470;SDS011;11908;50.806;4.424;2022-08-03T04:24:13;3.25;;;1.67;;
23470;SDS011;11908;50.806;4.424;2022-08-03T04:26:40;5.25;;;1.83;;
23470;SDS011;11908;50.806;4.424;2022-08-03T04:29:09;5.65;;;1.90;;
23470;SDS011;11908;50.806;4.424;2022-08-03T04:31:37;7.07;;;1.90;;
23470;SDS011;11908;50.806;4.424;2022-08-03T04:34:05;3.90;;;1.73;;
23470;SDS011;11908;50.806;4.424;2022-08-03T04:36:32;5.75;;;1.90;;
23470;SDS011;11908;50.806;4.424;2022-08-03T04:39:05;3.05;;;1.45;;
23470;SDS011;11908;50.806;4.424;2022-08-03T04:41:34;3.95;;;1.70;;
23470;SDS011;11908;50.806;4.424;2022-08-03T04:44:02;5.25;;;1.80;;
23470;SDS011;11908;50.806;4.424;2022-08-03T04:46:37;6.90;;;1.48;;
23470;SDS011;11908;50.806;4.424;2022-08-03T04:49:04;5.25;;;1.40;;
23470;SDS011;11908;50.806;4.424;2022-08-03T04:51:30;6.57;;;1.40;;
23470;SDS011;11908;50.806;4.424;2022-08-03T04:53:58;5.63;;;1.30;;
23470;SDS011;11908;50.806;4.424;2022-08-03T04:56:24;8.20;;;2.00;;
23470;SDS011;11908;50.806;4.424;2022-08-03T04:58:50;7.00;;;1.70;;
23470;SDS011;11908;50.806;4.424;2022-08-03T05:01:16;7.43;;;1.40;;
23470;SDS011;11908;50.806;4.424;2022-08-03T05:03:44;5.20;;;1.48;;
23470;SDS011;11908;50.806;4.424;2022-08-03T05:06:10;10.05;;;1.40;;
23470;SDS011;11908;50.806;4.424;2022-08-03T05:08:36;5.25;;;1.67;;
23470;SDS011;11908;50.806;4.424;2022-08-03T05:11:02;7.57;;;1.25;;
23470;SDS011;11908;50.806;4.424;2022-08-03T05:13:28;8.43;;;1.58;;
23470;SDS011;11908;50.806;4.424;2022-08-03T05:15:53;5.35;;;1.50;;
23470;SDS011;11908;50.806;4.424;2022-08-03T05:18:20;5.90;;;1.45;;
23470;SDS011;11908;50.806;4.424;2022-08-03T05:20:46;4.45;;;1.20;;
23470;SDS011;11908;50.806;4.424;2022-08-03T05:23:11;7.47;;;1.42;;
23470;SDS011;11908;50.806;4.424;2022-08-03T05:25:37;4.15;;;1.20;;
23470;SDS011;11908;50.806;4.424;2022-08-03T05:28:03;5.13;;;1.30;;
23470;SDS011;11908;50.806;4.424;2022-08-03T05:30:28;5.97;;;1.40;;
23470;SDS011;11908;50.806;4.424;2022-08-03T05:32:54;4.88;;;1.45;;
23470;SDS011;11908;50.806;4.424;2022-08-03T05:35:20;4.88;;;1.15;;
23470;SDS011;11908;50.806;4.424;2022-08-03T05:37:46;9.20;;;1.48;;
23470;SDS011;11908;50.806;4.424;2022-08-03T05:40:11;5.45;;;1.40;;
23470;SDS011;11908;50.806;4.424;2022-08-03T05:42:37;8.57;;;1.40;;
23470;SDS011;11908;50.806;4.424;2022-08-03T05:45:03;4.82;;;1.20;;
23470;SDS011;11908;50.806;4.424;2022-08-03T05:47:39;9.15;;;1.30;;
23470;SDS011;11908;50.806;4.424;2022-08-03T05:50:06;5.30;;;1.08;;
23470;SDS011;11908;50.806;4.424;2022-08-03T05:52:32;6.57;;;1.27;;
23470;SDS011;11908;50.806;4.424;2022-08-03T05:54:57;4.68;;;1.20;;
23470;SDS011;11908;50.806;4.424;2022-08-03T05:57:23;7.32;;;1.40;;
23470;SDS011;11908;50.806;4.424;2022-08-03T05:59:49;6.13;;;1.45;;
23470;SDS011;11908;50.806;4.424;2022-08-03T06:02:15;2.83;;;1.00;;
23470;SDS011;11908;50.806;4.424;2022-08-03T06:04:40;8.05;;;1.30;;
23470;SDS011;11908;50.806;4.424;2022-08-03T06:07:06;9.63;;;1.30;;
23470;SDS011;11908;50.806;4.424;2022-08-03T06:09:32;7.70;;;1.83;;
23470;SDS011;11908;50.806;4.424;2022-08-03T06:11:58;5.88;;;1.20;;
23470;SDS011;11908;50.806;4.424;2022-08-03T06:14:23;6.80;;;1.10;;
23470;SDS011;11908;50.806;4.424;2022-08-03T06:16:49;6.40;;;1.38;;
23470;SDS011;11908;50.806;4.424;2022-08-03T06:19:15;6.55;;;1.02;;
23470;SDS011;11908;50.806;4.424;2022-08-03T06:21:40;4.53;;;1.20;;
23470;SDS011;11908;50.806;4.424;2022-08-03T06:24:06;4.55;;;1.00;;
23470;SDS011;11908;50.806;4.424;2022-08-03T06:26:32;6.82;;;1.48;;
23470;SDS011;11908;50.806;4.424;2022-08-03T06:28:57;4.60;;;1.50;;
23470;SDS011;11908;50.806;4.424;2022-08-03T06:31:24;4.93;;;1.08;;
23470;SDS011;11908;50.806;4.424;2022-08-03T06:33:52;4.75;;;1.20;;
23470;SDS011;11908;50.806;4.424;2022-08-03T06:36:17;8.32;;;1.00;;
23470;SDS011;11908;50.806;4.424;2022-08-03T06:38:43;5.45;;;1.33;;
23470;SDS011;11908;50.806;4.424;2022-08-03T06:41:08;3.75;;;1.10;;
23470;SDS011;11908;50.806;4.424;2022-08-03T06:43:34;5.07;;;1.50;;
23470;SDS011;11908;50.806;4.424;2022-08-03T06:46:01;6.93;;;1.60;;
23470;SDS011;11908;50.806;4.424;2022-08-03T06:48:28;7.15;;;1.60;;
23470;SDS011;11908;50.806;4.424;2022-08-03T06:50:53;3.42;;;1.08;;
23470;SDS011;11908;50.806;4.424;2022-08-03T06:53:19;2.95;;;1.08;;
23470;SDS011;11908;50.806;4.424;2022-08-03T06:55:45;4.22;;;1.10;;
23470;SDS011;11908;50.806;4.424;2022-08-03T06:58:10;7.53;;;1.10;;
23470;SDS011;11908;50.806;4.424;2022-08-03T07:00:36;8.02;;;1.30;;
23470;SDS011;11908;50.806;4.424;2022-08-03T07:03:02;6.68;;;1.10;;
23470;SDS011;11908;50.806;4.424;2022-08-03T07:05:27;2.40;;;1.00;;
23470;SDS011;11908;50.806;4.424;2022-08-03T07:07:54;5.60;;;0.95;;
23470;SDS011;11908;50.806;4.424;2022-08-03T07:10:21;4.28;;;1.00;;
23470;SDS011;11908;50.806;4.424;2022-08-03T07:12:47;5.95;;;1.00;;
23470;SDS011;11908;50.806;4.424;2022-08-03T07:15:13;5.72;;;1.33;;
23470;SDS011;11908;50.806;4.424;2022-08-03T07:17:38;4.18;;;1.00;;
23470;SDS011;11908;50.806;4.424;2022-08-03T07:20:05;9.20;;;1.20;;
23470;SDS011;11908;50.806;4.424;2022-08-03T07:22:32;4.72;;;0.90;;
23470;SDS011;11908;50.806;4.424;2022-08-03T07:24:59;3.33;;;0.80;;
23470;SDS011;11908;50.806;4.424;2022-08-03T07:27:25;4.90;;;0.88;;
23470;SDS011;11908;50.806;4.424;2022-08-03T07:29:52;4.45;;;1.38;;
23470;SDS011;11908;50.806;4.424;2022-08-03T07:32:18;4.32;;;1.00;;
23470;SDS011;11908;50.806;4.424;2022-08-03T07:34:44;6.15;;;1.02;;
23470;SDS011;11908;50.806;4.424;2022-08-03T07:37:10;6.30;;;1.13;;
23470;SDS011;11908;50.806;4.424;2022-08-03T07:39:36;3.17;;;1.10;;
23470;SDS011;11908;50.806;4.424;2022-08-03T07:42:01;4.55;;;1.00;;
23470;SDS011;11908;50.806;4.424;2022-08-03T07:44:27;7.30;;;1.25;;
23470;SDS011;11908;50.806;4.424;2022-08-03T07:46:53;6.60;;;1.08;;
23470;SDS011;11908;50.806;4.424;2022-08-03T07:49:18;6.05;;;1.17;;
23470;SDS011;11908;50.806;4.424;2022-08-03T07:51:44;7.90;;;1.25;;
23470;SDS011;11908;50.806;4.424;2022-08-03T07:54:10;10.30;;;1.40;;
23470;SDS011;11908;50.806;4.424;2022-08-03T07:56:35;7.45;;;1.10;;
23470;SDS011;11908;50.806;4.424;2022-08-03T07:59:02;10.13;;;1.52;;
23470;SDS011;11908;50.806;4.424;2022-08-03T08:01:28;10.63;;;1.63;;
23470;SDS011;11908;50.806;4.424;2022-08-03T08:03:53;10.02;;;1.90;;
23470;SDS011;11908;50.806;4.424;2022-08-03T08:06:19;12.40;;;1.40;;
23470;SDS011;11908;50.806;4.424;2022-08-03T08:08:45;8.90;;;1.55;;
23470;SDS011;11908;50.806;4.424;2022-08-03T08:11:11;7.43;;;1.77;;
23470;SDS011;11908;50.806;4.424;2022-08-03T08:13:37;9.40;;;1.80;;
23470;SDS011;11908;50.806;4.424;2022-08-03T08:16:03;6.28;;;1.67;;
23470;SDS011;11908;50.806;4.424;2022-08-03T08:18:29;7.93;;;1.10;;
23470;SDS011;11908;50.806;4.424;2022-08-03T08:20:55;10.65;;;1.60;;
23470;SDS011;11908;50.806;4.424;2022-08-03T08:23:21;11.57;;;1.83;;
23470;SDS011;11908;50.806;4.424;2022-08-03T08:25:48;13.88;;;1.52;;
23470;SDS011;11908;50.806;4.424;2022-08-03T08:28:18;10.23;;;1.85;;
23470;SDS011;11908;50.806;4.424;2022-08-03T08:30:45;11.73;;;1.77;;
23470;SDS011;11908;50.806;4.424;2022-08-03T08:33:11;7.85;;;1.70;;
23470;SDS011;11908;50.806;4.424;2022-08-03T08:35:37;13.88;;;1.65;;
23470;SDS011;11908;50.806;4.424;2022-08-03T08:38:03;12.15;;;1.98;;
23470;SDS011;11908;50.806;4.424;2022-08-03T08:40:28;7.00;;;1.63;;
23470;SDS011;11908;50.806;4.424;2022-08-03T08:42:54;4.82;;;1.50;;
23470;SDS011;11908;50.806;4.424;2022-08-03T08:45:20;9.13;;;1.60;;
23470;SDS011;11908;50.806;4.424;2022-08-03T08:47:46;8.18;;;1.98;;
23470;SDS011;11908;50.806;4.424;2022-08-03T08:50:15;7.15;;;1.52;;
23470;SDS011;11908;50.806;4.424;2022-08-03T08:52:43;14.25;;;1.90;;
23470;SDS011;11908;50.806;4.424;2022-08-03T08:55:12;6.97;;;1.92;;
23470;SDS011;11908;50.806;4.424;2022-08-03T08:57:41;7.90;;;1.95;;
23470;SDS011;11908;50.806;4.424;2022-08-03T09:00:11;10.50;;;1.77;;
23470;SDS011;11908;50.806;4.424;2022-08-03T09:02:39;19.40;;;2.47;;
23470;SDS011;11908;50.806;4.424;2022-08-03T09:05:09;10.00;;;1.52;;
23470;SDS011;11908;50.806;4.424;2022-08-03T09:07:37;11.10;;;1.33;;
23470;SDS011;11908;50.806;4.424;2022-08-03T09:10:03;11.55;;;1.80;;
23470;SDS011;11908;50.806;4.424;2022-08-03T09:12:30;10.23;;;1.33;;
23470;SDS011;11908;50.806;4.424;2022-08-03T09:17:51;10.43;;;1.52;;
23470;SDS011;11908;50.806;4.424;2022-08-03T09:20:19;10.88;;;1.52;;
23470;SDS011;11908;50.806;4.424;2022-08-03T09:22:57;9.38;;;1.35;;
23470;SDS011;11908;50.806;4.424;2022-08-03T09:25:30;7.88;;;1.05;;
23470;SDS011;11908;50.806;4.424;2022-08-03T09:30:43;10.18;;;1.45;;
23470;SDS011;11908;50.806;4.424;2022-08-03T09:33:21;8.10;;;1.38;;
23470;SDS011;11908;50.806;4.424;2022-08-03T09:35:47;5.68;;;1.15;;
23470;SDS011;11908;50.806;4.424;2022-08-03T09:38:14;12.02;;;1.40;;
23470;SDS011;11908;50.806;4.424;2022-08-03T09:40:47;9.45;;;1.73;;
23470;SDS011;11908;50.806;4.424;2022-08-03T09:43:13;8.77;;;1.10;;
23470;SDS011;11908;50.806;4.424;2022-08-03T09:45:39;6.40;;;1.25;;
23470;SDS011;11908;50.806;4.424;2022-08-03T09:48:19;10.07;;;1.65;;
23470;SDS011;11908;50.806;4.424;2022-08-03T09:50:59;8.55;;;1.27;;
23470;SDS011;11908;50.806;4.424;2022-08-03T09:53:27;7.65;;;1.00;;
23470;SDS011;11908;50.806;4.424;2022-08-03T09:58:23;4.85;;;0.80;;
23470;SDS011;11908;50.806;4.424;2022-08-03T10:01:00;6.55;;;0.80;;
23470;SDS011;11908;50.806;4.424;2022-08-03T10:03:29;5.18;;;0.85;;
23470;SDS011;11908;50.806;4.424;2022-08-03T10:05:57;11.68;;;0.93;;
23470;SDS011;11908;50.806;4.424;2022-08-03T10:08:23;7.20;;;1.02;;
23470;SDS011;11908;50.806;4.424;2022-08-03T10:10:50;4.07;;;0.65;;
23470;SDS011;11908;50.806;4.424;2022-08-03T10:13:19;5.85;;;1.02;;
23470;SDS011;11908;50.806;4.424;2022-08-03T10:15:46;11.07;;;1.05;;
23470;SDS011;11908;50.806;4.424;2022-08-03T10:18:12;7.18;;;0.77;;
23470;SDS011;11908;50.806;4.424;2022-08-03T10:20:45;5.55;;;0.65;;
23470;SDS011;11908;50.806;4.424;2022-08-03T10:23:17;6.80;;;0.93;;
23470;SDS011;11908;50.806;4.424;2022-08-03T10:25:48;5.38;;;1.02;;
23470;SDS011;11908;50.806;4.424;2022-08-03T10:28:17;9.20;;;0.95;;
23470;SDS011;11908;50.806;4.424;2022-08-03T10:30:47;6.47;;;0.85;;
23470;SDS011;11908;50.806;4.424;2022-08-03T10:33:19;5.65;;;0.93;;
23470;SDS011;11908;50.806;4.424;2022-08-03T10:35:49;9.80;;;0.90;;
23470;SDS011;11908;50.806;4.424;2022-08-03T10:38:19;7.95;;;0.95;;
23470;SDS011;11908;50.806;4.424;2022-08-03T10:40:53;14.43;;;1.30;;
23470;SDS011;11908;50.806;4.424;2022-08-03T10:43:25;4.38;;;0.80;;
23470;SDS011;11908;50.806;4.424;2022-08-03T10:45:56;8.68;;;1.27;;
23470;SDS011;11908;50.806;4.424;2022-08-03T10:48:23;5.15;;;0.77;;
23470;SDS011;11908;50.806;4.424;2022-08-03T10:50:50;7.53;;;1.10;;
23470;SDS011;11908;50.806;4.424;2022-08-03T10:53:16;6.43;;;1.25;;
23470;SDS011;11908;50.806;4.424;2022-08-03T10:56:02;8.07;;;1.00;;
23470;SDS011;11908;50.806;4.424;2022-08-03T11:01:14;5.70;;;1.10;;
23470;SDS011;11908;50.806;4.424;2022-08-03T11:06:22;8.02;;;1.30;;
23470;SDS011;11908;50.806;4.424;2022-08-03T11:11:34;5.22;;;0.90;;
23470;SDS011;11908;50.806;4.424;2022-08-03T11:14:11;7.05;;;0.88;;
23470;SDS011;11908;50.806;4.424;2022-08-03T11:16:43;5.70;;;0.93;;
23470;SDS011;11908;50.806;4.424;2022-08-03T11:19:14;3.72;;;0.90;;
23470;SDS011;11908;50.806;4.424;2022-08-03T11:43:53;3.92;;;0.70;;
23470;SDS011;11908;50.806;4.424;2022-08-03T11:48:22;3.40;;;0.75;;
23470;SDS011;11908;50.806;4.424;2022-08-03T11:50:50;7.97;;;1.10;;
23470;SDS011;11908;50.806;4.424;2022-08-03T11:53:17;2.80;;;0.68;;
23470;SDS011;11908;50.806;4.424;2022-08-03T11:55:44;4.13;;;0.88;;
23470;SDS011;11908;50.806;4.424;2022-08-03T11:58:19;4.40;;;0.68;;
23470;SDS011;11908;50.806;4.424;2022-08-03T12:00:47;4.15;;;0.73;;
23470;SDS011;11908;50.806;4.424;2022-08-03T12:03:14;3.17;;;0.80;;
23470;SDS011;11908;50.806;4.424;2022-08-03T12:08:15;3.13;;;0.98;;
23470;SDS011;11908;50.806;4.424;2022-08-03T12:10:47;2.83;;;0.80;;
23470;SDS011;11908;50.806;4.424;2022-08-03T12:13:14;3.78;;;0.80;;
23470;SDS011;11908;50.806;4.424;2022-08-03T12:15:40;4.68;;;0.82;;
23470;SDS011;11908;50.806;4.424;2022-08-03T12:18:13;6.88;;;0.90;;
23470;SDS011;11908;50.806;4.424;2022-08-03T12:20:44;3.00;;;1.08;;
23470;SDS011;11908;50.806;4.424;2022-08-03T12:23:10;3.85;;;0.88;;
23470;SDS011;11908;50.806;4.424;2022-08-03T12:25:37;2.22;;;0.70;;
23470;SDS011;11908;50.806;4.424;2022-08-03T12:28:05;3.20;;;0.90;;
23470;SDS011;11908;50.806;4.424;2022-08-03T12:30:43;7.38;;;1.05;;
23470;SDS011;11908;50.806;4.424;2022-08-03T12:33:21;3.72;;;0.70;;
23470;SDS011;11908;50.806;4.424;2022-08-03T12:35:50;5.97;;;0.80;;
23470;SDS011;11908;50.806;4.424;2022-08-03T12:38:35;3.47;;;0.70;;
23470;SDS011;11908;50.806;4.424;2022-08-03T12:41:09;7.80;;;0.82;;
23470;SDS011;11908;50.806;4.424;2022-08-03T12:43:49;3.08;;;0.60;;
23470;SDS011;11908;50.806;4.424;2022-08-03T12:46:17;8.20;;;0.90;;
23470;SDS011;11908;50.806;4.424;2022-08-03T12:51:36;1.55;;;0.65;;
23470;SDS011;11908;50.806;4.424;2022-08-03T12:54:20;8.05;;;0.80;;
23470;SDS011;11908;50.806;4.424;2022-08-03T12:59:23;3.25;;;0.70;;
23470;SDS011;11908;50.806;4.424;2022-08-03T13:01:50;3.10;;;0.80;;
23470;SDS011;11908;50.806;4.424;2022-08-03T13:07:13;4.53;;;0.85;;
23470;SDS011;11908;50.806;4.424;2022-08-03T13:09:53;3.40;;;0.93;;
23470;SDS011;11908;50.806;4.424;2022-08-03T13:12:21;4.57;;;0.70;;
23470;SDS011;11908;50.806;4.424;2022-08-03T13:14:48;3.47;;;0.80;;
23470;SDS011;11908;50.806;4.424;2022-08-03T13:17:16;2.80;;;0.77;;
23470;SDS011;11908;50.806;4.424;2022-08-03T13:19:43;5.15;;;0.93;;
23470;SDS011;11908;50.806;4.424;2022-08-03T13:22:16;2.55;;;0.60;;
23470;SDS011;11908;50.806;4.424;2022-08-03T13:24:51;6.50;;;0.80;;
23470;SDS011;11908;50.806;4.424;2022-08-03T13:27:21;1.85;;;0.88;;
23470;SDS011;11908;50.806;4.424;2022-08-03T13:29:48;2.17;;;0.80;;
23470;SDS011;11908;50.806;4.424;2022-08-03T13:32:14;7.15;;;0.85;;
23470;SDS011;11908;50.806;4.424;2022-08-03T13:34:40;2.05;;;0.75;;
23470;SDS011;11908;50.806;4.424;2022-08-03T13:37:06;4.20;;;0.63;;
23470;SDS011;11908;50.806;4.424;2022-08-03T13:39:31;2.95;;;1.20;;
23470;SDS011;11908;50.806;4.424;2022-08-03T13:41:57;2.33;;;0.73;;
23470;SDS011;11908;50.806;4.424;2022-08-03T13:44:23;4.20;;;0.70;;
23470;SDS011;11908;50.806;4.424;2022-08-03T13:46:49;3.88;;;0.93;;
23470;SDS011;11908;50.806;4.424;2022-08-03T13:49:14;3.45;;;0.57;;
23470;SDS011;11908;50.806;4.424;2022-08-03T13:51:40;2.50;;;0.98;;
23470;SDS011;11908;50.806;4.424;2022-08-03T13:54:06;5.07;;;0.70;;
23470;SDS011;11908;50.806;4.424;2022-08-03T13:56:32;4.63;;;0.65;;
23470;SDS011;11908;50.806;4.424;2022-08-03T13:58:57;3.20;;;0.85;;
23470;SDS011;11908;50.806;4.424;2022-08-03T14:01:23;2.58;;;0.77;;
23470;SDS011;11908;50.806;4.424;2022-08-03T14:03:50;2.70;;;0.70;;
23470;SDS011;11908;50.806;4.424;2022-08-03T14:06:18;1.92;;;0.60;;
23470;SDS011;11908;50.806;4.424;2022-08-03T14:08:44;2.97;;;0.90;;
23470;SDS011;11908;50.806;4.424;2022-08-03T14:11:12;4.72;;;0.75;;
23470;SDS011;11908;50.806;4.424;2022-08-03T14:13:38;4.55;;;0.77;;
23470;SDS011;11908;50.806;4.424;2022-08-03T14:16:04;3.17;;;0.88;;
23470;SDS011;11908;50.806;4.424;2022-08-03T14:18:30;6.40;;;0.80;;
23470;SDS011;11908;50.806;4.424;2022-08-03T14:20:56;6.63;;;0.52;;
23470;SDS011;11908;50.806;4.424;2022-08-03T14:23:22;2.28;;;0.63;;
23470;SDS011;11908;50.806;4.424;2022-08-03T14:25:48;3.97;;;0.80;;
23470;SDS011;11908;50.806;4.424;2022-08-03T14:28:14;2.88;;;0.85;;
23470;SDS011;11908;50.806;4.424;2022-08-03T14:30:40;2.78;;;0.70;;
23470;SDS011;11908;50.806;4.424;2022-08-03T14:33:06;4.82;;;0.70;;
23470;SDS011;11908;50.806;4.424;2022-08-03T14:35:31;1.52;;;0.70;;
23470;SDS011;11908;50.806;4.424;2022-08-03T14:37:57;6.88;;;0.80;;
23470;SDS011;11908;50.806;4.424;2022-08-03T14:40:23;5.68;;;0.70;;
23470;SDS011;11908;50.806;4.424;2022-08-03T14:42:48;5.13;;;0.80;;
23470;SDS011;11908;50.806;4.424;2022-08-03T14:45:14;5.03;;;0.80;;
23470;SDS011;11908;50.806;4.424;2022-08-03T14:47:40;3.10;;;0.80;;
23470;SDS011;11908;50.806;4.424;2022-08-03T14:50:06;3.28;;;0.88;;
23470;SDS011;11908;50.806;4.424;2022-08-03T14:52:32;4.15;;;0.80;;
23470;SDS011;11908;50.806;4.424;2022-08-03T14:54:58;3.53;;;0.70;;
23470;SDS011;11908;50.806;4.424;2022-08-03T14:57:25;2.33;;;0.80;;
23470;SDS011;11908;50.806;4.424;2022-08-03T14:59:51;6.80;;;0.90;;
23470;SDS011;11908;50.806;4.424;2022-08-03T15:02:16;4.30;;;0.70;;
23470;SDS011;11908;50.806;4.424;2022-08-03T15:04:43;1.38;;;0.70;;
23470;SDS011;11908;50.806;4.424;2022-08-03T15:07:08;6.95;;;0.88;;
23470;SDS011;11908;50.806;4.424;2022-08-03T15:09:34;3.40;;;1.00;;
23470;SDS011;11908;50.806;4.424;2022-08-03T15:12:00;6.53;;;0.98;;
23470;SDS011;11908;50.806;4.424;2022-08-03T15:14:25;7.03;;;0.80;;
23470;SDS011;11908;50.806;4.424;2022-08-03T15:16:51;4.55;;;0.80;;
23470;SDS011;11908;50.806;4.424;2022-08-03T15:19:17;9.20;;;1.08;;
23470;SDS011;11908;50.806;4.424;2022-08-03T15:21:43;1.15;;;0.57;;
23470;SDS011;11908;50.806;4.424;2022-08-03T15:24:08;2.55;;;1.00;;
23470;SDS011;11908;50.806;4.424;2022-08-03T15:26:34;5.45;;;0.80;;
23470;SDS011;11908;50.806;4.424;2022-08-03T15:29:00;6.68;;;0.82;;
23470;SDS011;11908;50.806;4.424;2022-08-03T15:31:26;4.28;;;0.80;;
23470;SDS011;11908;50.806;4.424;2022-08-03T15:33:52;4.28;;;0.80;;
23470;SDS011;11908;50.806;4.424;2022-08-03T15:36:18;1.65;;;0.73;;
23470;SDS011;11908;50.806;4.424;2022-08-03T15:38:44;4.45;;;0.82;;
23470;SDS011;11908;50.806;4.424;2022-08-03T15:41:11;3.17;;;0.93;;
23470;SDS011;11908;50.806;4.424;2022-08-03T15:43:37;6.55;;;0.90;;
23470;SDS011;11908;50.806;4.424;2022-08-03T15:46:03;4.22;;;0.75;;
23470;SDS011;11908;50.806;4.424;2022-08-03T15:48:29;2.50;;;0.80;;
23470;SDS011;11908;50.806;4.424;2022-08-03T15:50:55;8.88;;;1.70;;
23470;SDS011;11908;50.806;4.424;2022-08-03T15:53:21;9.05;;;1.17;;
23470;SDS011;11908;50.806;4.424;2022-08-03T15:55:46;4.07;;;0.80;;